sensor_id;sensor_type;location;lat;lon;timestamp;P1;P2;P0
73148;PMS7003;61346;48.930;2.266;2023-01-19T00:00:48;15.25;13.75;9.25
73148;PMS7003;61346;48.930;2.266;2023-01-19T00:03:13;18.00;17.00;11.00
73148;PMS7003;61346;48.930;2.266;2023-01-19T00:05:42;13.00;11.50;8.00
73148;PMS7003;61346;48.930;2.266;2023-01-19T00:08:08;20.25;17.25;11.00
73148;PMS7003;61346;48.930;2.266;2023-01-19T00:10:39;25.25;17.00;12.25
73148;PMS7003;61346;48.930;2.266;2023-01-19T00:13:06;21.25;15.25;10.00
73148;PMS7003;61346;48.930;2.266;2023-01-19T00:15:32;25.25;17.50;10.50
73148;PMS7003;61346;48.930;2.266;2023-01-19T00:17:57;18.00;16.50;10.00
73148;PMS7003;61346;48.930;2.266;2023-01-19T00:20:23;18.75;16.00;10.75
73148;PMS7003;61346;48.930;2.266;2023-01-19T00:23:04;21.75;18.50;10.25
73148;PMS7003;61346;48.930;2.266;2023-01-19T00:25:35;15.25;13.00;10.00
73148;PMS7003;61346;48.930;2.266;2023-01-19T00:28:10;22.00;17.75;12.50
73148;PMS7003;61346;48.930;2.266;2023-01-19T00:30:37;14.00;14.00;8.75
73148;PMS7003;61346;48.930;2.266;2023-01-19T00:33:05;28.25;18.50;11.25
73148;PMS7003;61346;48.930;2.266;2023-01-19T00:35:30;14.50;12.50;8.00
73148;PMS7003;61346;48.930;2.266;2023-01-19T00:37:56;17.25;12.75;8.00
73148;PMS7003;61346;48.930;2.266;2023-01-19T00:40:29;19.00;14.00;7.25
73148;PMS7003;61346;48.930;2.266;2023-01-19T00:42:55;17.25;13.50;9.25
73148;PMS7003;61346;48.930;2.266;2023-01-19T00:45:21;17.00;17.00;11.00
73148;PMS7003;61346;48.930;2.266;2023-01-19T00:47:48;13.25;13.25;9.00
73148;PMS7003;61346;48.930;2.266;2023-01-19T00:50:21;18.25;13.00;9.00
73148;PMS7003;61346;48.930;2.266;2023-01-19T00:53:16;18.25;14.75;10.00
73148;PMS7003;61346;48.930;2.266;2023-01-19T00:55:44;17.50;12.25;9.50
73148;PMS7003;61346;48.930;2.266;2023-01-19T00:58:09;10.75;9.25;8.00
73148;PMS7003;61346;48.930;2.266;2023-01-19T01:00:38;14.00;9.00;7.00
73148;PMS7003;61346;48.930;2.266;2023-01-19T01:03:03;20.25;14.25;9.00
73148;PMS7003;61346;48.930;2.266;2023-01-19T01:05:29;13.00;12.00;8.00
73148;PMS7003;61346;48.930;2.266;2023-01-19T01:07:54;23.00;15.50;10.50
73148;PMS7003;61346;48.930;2.266;2023-01-19T01:10:25;13.00;8.25;4.75
73148;PMS7003;61346;48.930;2.266;2023-01-19T01:12:52;11.50;9.75;7.25
73148;PMS7003;61346;48.930;2.266;2023-01-19T01:15:18;14.00;13.00;9.00
73148;PMS7003;61346;48.930;2.266;2023-01-19T01:17:44;18.25;12.00;8.75
73148;PMS7003;61346;48.930;2.266;2023-01-19T01:20:14;19.25;12.75;9.25
73148;PMS7003;61346;48.930;2.266;2023-01-19T01:22:47;11.25;9.75;8.25
73148;PMS7003;61346;48.930;2.266;2023-01-19T01:25:15;15.50;13.50;8.25
73148;PMS7003;61346;48.930;2.266;2023-01-19T01:27:42;16.00;11.25;8.75
73148;PMS7003;61346;48.930;2.266;2023-01-19T01:30:11;10.25;10.00;9.00
73148;PMS7003;61346;48.930;2.266;2023-01-19T01:32:40;17.25;10.00;5.75
73148;PMS7003;61346;48.930;2.266;2023-01-19T01:35:09;16.00;14.00;10.00
73148;PMS7003;61346;48.930;2.266;2023-01-19T01:37:35;16.75;13.25;9.50
73148;PMS7003;61346;48.930;2.266;2023-01-19T01:40:10;13.50;10.75;9.25
73148;PMS7003;61346;48.930;2.266;2023-01-19T01:42:37;12.75;12.75;8.25
73148;PMS7003;61346;48.930;2.266;2023-01-19T01:45:06;18.25;13.00;9.00
73148;PMS7003;61346;48.930;2.266;2023-01-19T01:50:34;14.00;11.50;9.00
73148;PMS7003;61346;48.930;2.266;2023-01-19T01:53:31;14.00;13.00;9.50
73148;PMS7003;61346;48.930;2.266;2023-01-19T01:56:09;13.00;9.50;6.50
73148;PMS7003;61346;48.930;2.266;2023-01-19T01:58:41;10.00;9.25;6.75
73148;PMS7003;61346;48.930;2.266;2023-01-19T02:01:07;9.00;9.00;6.50
73148;PMS7003;61346;48.930;2.266;2023-01-19T02:03:52;10.25;10.25;8.25
73148;PMS7003;61346;48.930;2.266;2023-01-19T02:06:25;14.50;9.25;7.25
73148;PMS7003;61346;48.930;2.266;2023-01-19T02:08:58;16.75;13.50;9.00
73148;PMS7003;61346;48.930;2.266;2023-01-19T02:11:46;13.25;11.75;9.00
73148;PMS7003;61346;48.930;2.266;2023-01-19T02:14:33;10.50;8.25;6.00
73148;PMS7003;61346;48.930;2.266;2023-01-19T02:17:01;10.50;9.25;7.25
73148;PMS7003;61346;48.930;2.266;2023-01-19T02:19:29;9.00;9.00;6.00
73148;PMS7003;61346;48.930;2.266;2023-01-19T02:24:35;13.25;9.25;8.00
73148;PMS7003;61346;48.930;2.266;2023-01-19T02:27:01;13.25;12.50;9.75
73148;PMS7003;61346;48.930;2.266;2023-01-19T02:29:28;12.75;12.75;7.00
73148;PMS7003;61346;48.930;2.266;2023-01-19T02:31:54;13.25;12.75;9.75
73148;PMS7003;61346;48.930;2.266;2023-01-19T02:34:21;11.50;11.25;8.50
73148;PMS7003;61346;48.930;2.266;2023-01-19T02:36:58;16.75;13.00;9.75
73148;PMS7003;61346;48.930;2.266;2023-01-19T02:39:38;14.25;13.00;8.75
73148;PMS7003;61346;48.930;2.266;2023-01-19T02:42:10;14.25;12.25;8.00
73148;PMS7003;61346;48.930;2.266;2023-01-19T02:44:39;15.50;11.75;8.75
73148;PMS7003;61346;48.930;2.266;2023-01-19T02:47:09;17.50;12.75;9.00
73148;PMS7003;61346;48.930;2.266;2023-01-19T02:49:35;15.25;12.25;9.00
73148;PMS7003;61346;48.930;2.266;2023-01-19T02:52:00;14.50;12.25;9.00
73148;PMS7003;61346;48.930;2.266;2023-01-19T02:54:35;16.00;13.25;9.25
73148;PMS7003;61346;48.930;2.266;2023-01-19T03:00:19;16.50;13.50;9.00
73148;PMS7003;61346;48.930;2.266;2023-01-19T03:11:29;8.00;8.00;6.00
73148;PMS7003;61346;48.930;2.266;2023-01-19T03:16:43;17.00;13.00;9.00
73148;PMS7003;61346;48.930;2.266;2023-01-19T03:19:23;15.50;13.25;10.50
73148;PMS7003;61346;48.930;2.266;2023-01-19T03:21:58;10.00;9.00;5.00
73148;PMS7003;61346;48.930;2.266;2023-01-19T03:24:27;16.00;16.00;10.00
73148;PMS7003;61346;48.930;2.266;2023-01-19T03:26:59;15.25;13.00;10.00
73148;PMS7003;61346;48.930;2.266;2023-01-19T03:29:29;15.00;13.25;9.00
73148;PMS7003;61346;48.930;2.266;2023-01-19T03:31:59;16.00;15.75;11.00
73148;PMS7003;61346;48.930;2.266;2023-01-19T03:34:30;20.00;14.25;8.00
73148;PMS7003;61346;48.930;2.266;2023-01-19T03:37:01;18.25;16.25;9.00
73148;PMS7003;61346;48.930;2.266;2023-01-19T03:39:33;20.75;16.25;9.25
73148;PMS7003;61346;48.930;2.266;2023-01-19T03:42:05;19.25;17.50;12.00
73148;PMS7003;61346;48.930;2.266;2023-01-19T03:44:35;25.75;19.50;13.00
73148;PMS7003;61346;48.930;2.266;2023-01-19T03:47:04;21.25;14.25;11.00
73148;PMS7003;61346;48.930;2.266;2023-01-19T03:49:32;19.25;14.00;9.00
73148;PMS7003;61346;48.930;2.266;2023-01-19T03:52:10;20.75;17.00;12.25
73148;PMS7003;61346;48.930;2.266;2023-01-19T03:54:39;18.00;15.25;10.00
73148;PMS7003;61346;48.930;2.266;2023-01-19T03:57:14;19.50;17.75;9.00
73148;PMS7003;61346;48.930;2.266;2023-01-19T03:59:39;18.25;15.75;10.00
73148;PMS7003;61346;48.930;2.266;2023-01-19T04:02:07;21.50;16.00;11.75
73148;PMS7003;61346;48.930;2.266;2023-01-19T04:04:35;18.00;17.75;12.50
73148;PMS7003;61346;48.930;2.266;2023-01-19T04:07:03;15.50;14.25;10.00
73148;PMS7003;61346;48.930;2.266;2023-01-19T04:09:28;18.75;13.50;11.25
73148;PMS7003;61346;48.930;2.266;2023-01-19T04:11:54;20.75;15.00;9.25
73148;PMS7003;61346;48.930;2.266;2023-01-19T04:14:21;14.00;12.75;9.00
73148;PMS7003;61346;48.930;2.266;2023-01-19T04:16:46;17.50;16.75;10.00
73148;PMS7003;61346;48.930;2.266;2023-01-19T04:19:14;19.00;16.75;11.00
73148;PMS7003;61346;48.930;2.266;2023-01-19T04:21:39;15.75;14.75;10.25
73148;PMS7003;61346;48.930;2.266;2023-01-19T04:24:08;13.00;13.00;9.00
73148;PMS7003;61346;48.930;2.266;2023-01-19T04:26:37;13.50;12.00;8.00
73148;PMS7003;61346;48.930;2.266;2023-01-19T04:29:02;16.00;12.00;8.50
73148;PMS7003;61346;48.930;2.266;2023-01-19T04:31:28;15.50;12.25;8.00
73148;PMS7003;61346;48.930;2.266;2023-01-19T04:33:54;12.00;12.00;8.75
73148;PMS7003;61346;48.930;2.266;2023-01-19T04:36:22;11.75;6.25;4.00
73148;PMS7003;61346;48.930;2.266;2023-01-19T04:38:50;11.75;10.50;7.50
73148;PMS7003;61346;48.930;2.266;2023-01-19T04:41:15;13.25;12.25;8.25
73148;PMS7003;61346;48.930;2.266;2023-01-19T04:43:41;10.00;9.00;5.00
73148;PMS7003;61346;48.930;2.266;2023-01-19T04:46:09;12.75;12.50;8.50
73148;PMS7003;61346;48.930;2.266;2023-01-19T04:48:34;17.00;15.00;11.00
73148;PMS7003;61346;48.930;2.266;2023-01-19T04:51:07;15.75;12.00;8.00
73148;PMS7003;61346;48.930;2.266;2023-01-19T04:53:38;15.00;12.50;8.00
73148;PMS7003;61346;48.930;2.266;2023-01-19T04:56:08;16.25;16.25;10.00
73148;PMS7003;61346;48.930;2.266;2023-01-19T04:58:36;16.25;13.00;9.50
73148;PMS7003;61346;48.930;2.266;2023-01-19T05:01:07;20.25;14.50;9.00
73148;PMS7003;61346;48.930;2.266;2023-01-19T05:03:41;18.00;14.50;10.25
73148;PMS7003;61346;48.930;2.266;2023-01-19T05:06:13;26.50;16.75;9.00
73148;PMS7003;61346;48.930;2.266;2023-01-19T05:08:38;14.00;11.00;8.00
73148;PMS7003;61346;48.930;2.266;2023-01-19T05:14:17;12.00;10.50;8.00
73148;PMS7003;61346;48.930;2.266;2023-01-19T05:16:44;15.25;12.00;8.00
73148;PMS7003;61346;48.930;2.266;2023-01-19T05:19:11;15.75;15.00;9.00
73148;PMS7003;61346;48.930;2.266;2023-01-19T05:21:43;16.25;13.00;9.50
73148;PMS7003;61346;48.930;2.266;2023-01-19T05:24:11;18.75;14.75;8.75
73148;PMS7003;61346;48.930;2.266;2023-01-19T05:26:37;12.75;11.75;9.50
73148;PMS7003;61346;48.930;2.266;2023-01-19T05:29:02;22.50;12.50;9.00
73148;PMS7003;61346;48.930;2.266;2023-01-19T05:31:28;14.25;13.50;10.25
73148;PMS7003;61346;48.930;2.266;2023-01-19T05:33:55;17.25;12.75;9.00
73148;PMS7003;61346;48.930;2.266;2023-01-19T05:39:12;14.75;11.50;7.50
73148;PMS7003;61346;48.930;2.266;2023-01-19T05:41:38;16.00;15.25;10.00
73148;PMS7003;61346;48.930;2.266;2023-01-19T05:44:03;16.75;16.75;10.50
73148;PMS7003;61346;48.930;2.266;2023-01-19T05:46:29;17.25;15.00;10.50
73148;PMS7003;61346;48.930;2.266;2023-01-19T05:48:54;18.00;14.75;9.00
73148;PMS7003;61346;48.930;2.266;2023-01-19T05:51:20;14.50;12.00;6.25
73148;PMS7003;61346;48.930;2.266;2023-01-19T05:53:56;17.50;13.75;9.00
73148;PMS7003;61346;48.930;2.266;2023-01-19T05:56:24;10.00;5.75;3.50
73148;PMS7003;61346;48.930;2.266;2023-01-19T05:58:49;15.00;11.75;8.00
73148;PMS7003;61346;48.930;2.266;2023-01-19T06:01:15;16.25;11.50;8.50
73148;PMS7003;61346;48.930;2.266;2023-01-19T06:03:43;13.50;11.25;8.00
73148;PMS7003;61346;48.930;2.266;2023-01-19T06:06:09;5.00;5.00;4.00
73148;PMS7003;61346;48.930;2.266;2023-01-19T06:08:34;11.25;11.25;8.00
73148;PMS7003;61346;48.930;2.266;2023-01-19T06:11:00;15.25;13.00;10.00
73148;PMS7003;61346;48.930;2.266;2023-01-19T06:13:25;13.25;12.00;8.75
73148;PMS7003;61346;48.930;2.266;2023-01-19T06:16:03;18.75;13.00;9.00
73148;PMS7003;61346;48.930;2.266;2023-01-19T06:18:28;18.75;13.50;9.00
73148;PMS7003;61346;48.930;2.266;2023-01-19T06:20:54;12.25;9.00;7.00
73148;PMS7003;61346;48.930;2.266;2023-01-19T06:23:26;14.25;13.50;8.50
73148;PMS7003;61346;48.930;2.266;2023-01-19T06:25:56;17.25;11.75;8.00
73148;PMS7003;61346;48.930;2.266;2023-01-19T06:28:22;15.75;13.25;8.75
73148;PMS7003;61346;48.930;2.266;2023-01-19T07:35:23;12.75;11.00;8.50
73148;PMS7003;61346;48.930;2.266;2023-01-19T07:37:53;9.00;6.00;4.00
73148;PMS7003;61346;48.930;2.266;2023-01-19T07:40:19;7.75;7.00;4.50
73148;PMS7003;61346;48.930;2.266;2023-01-19T07:42:47;14.25;11.00;8.00
73148;PMS7003;61346;48.930;2.266;2023-01-19T07:45:15;11.00;8.75;8.00
73148;PMS7003;61346;48.930;2.266;2023-01-19T07:47:59;11.25;9.00;8.00
73148;PMS7003;61346;48.930;2.266;2023-01-19T07:50:27;12.75;9.50;7.00
73148;PMS7003;61346;48.930;2.266;2023-01-19T07:52:53;13.00;9.25;7.00
73148;PMS7003;61346;48.930;2.266;2023-01-19T07:55:57;12.25;10.50;7.25
73148;PMS7003;61346;48.930;2.266;2023-01-19T07:58:37;13.50;9.00;8.00
73148;PMS7003;61346;48.930;2.266;2023-01-19T08:01:10;13.00;9.00;8.00
73148;PMS7003;61346;48.930;2.266;2023-01-19T08:03:40;12.75;10.25;8.00
73148;PMS7003;61346;48.930;2.266;2023-01-19T08:06:21;8.75;8.75;6.25
73148;PMS7003;61346;48.930;2.266;2023-01-19T08:08:51;14.25;13.50;10.00
73148;PMS7003;61346;48.930;2.266;2023-01-19T08:11:20;14.00;11.00;7.50
73148;PMS7003;61346;48.930;2.266;2023-01-19T08:13:50;12.50;11.00;7.25
73148;PMS7003;61346;48.930;2.266;2023-01-19T08:16:18;12.00;9.50;7.75
73148;PMS7003;61346;48.930;2.266;2023-01-19T08:18:44;12.00;12.00;9.50
73148;PMS7003;61346;48.930;2.266;2023-01-19T08:21:12;11.75;11.75;9.00
73148;PMS7003;61346;48.930;2.266;2023-01-19T08:23:37;15.25;7.25;5.75
73148;PMS7003;61346;48.930;2.266;2023-01-19T08:26:19;12.75;9.00;6.50
73148;PMS7003;61346;48.930;2.266;2023-01-19T08:28:56;12.00;11.00;7.00
73148;PMS7003;61346;48.930;2.266;2023-01-19T08:31:26;13.75;12.25;9.00
73148;PMS7003;61346;48.930;2.266;2023-01-19T08:33:51;13.25;9.75;7.00
73148;PMS7003;61346;48.930;2.266;2023-01-19T08:36:20;8.00;8.00;6.00
73148;PMS7003;61346;48.930;2.266;2023-01-19T08:38:49;5.00;5.00;5.00
73148;PMS7003;61346;48.930;2.266;2023-01-19T08:41:17;15.25;10.25;7.50
73148;PMS7003;61346;48.930;2.266;2023-01-19T08:43:42;4.25;4.25;2.00
73148;PMS7003;61346;48.930;2.266;2023-01-19T08:46:09;4.50;4.50;4.00
73148;PMS7003;61346;48.930;2.266;2023-01-19T08:48:41;10.00;9.00;6.00
73148;PMS7003;61346;48.930;2.266;2023-01-19T08:51:07;8.50;6.00;5.75
73148;PMS7003;61346;48.930;2.266;2023-01-19T08:53:33;13.25;9.00;6.00
73148;PMS7003;61346;48.930;2.266;2023-01-19T08:55:58;9.25;7.00;4.25
73148;PMS7003;61346;48.930;2.266;2023-01-19T08:58:27;10.25;9.00;6.50
73148;PMS7003;61346;48.930;2.266;2023-01-19T09:00:58;15.00;9.50;6.00
73148;PMS7003;61346;48.930;2.266;2023-01-19T09:06:31;9.00;9.00;8.00
73148;PMS7003;61346;48.930;2.266;2023-01-19T09:08:58;9.75;9.75;6.00
73148;PMS7003;61346;48.930;2.266;2023-01-19T09:11:24;9.50;9.00;6.75
73148;PMS7003;61346;48.930;2.266;2023-01-19T09:14:03;9.00;9.00;8.00
73148;PMS7003;61346;48.930;2.266;2023-01-19T09:16:32;10.00;8.50;6.00
73148;PMS7003;61346;48.930;2.266;2023-01-19T09:18:58;10.25;9.00;6.50
73148;PMS7003;61346;48.930;2.266;2023-01-19T09:21:27;8.75;6.50;6.00
73148;PMS7003;61346;48.930;2.266;2023-01-19T09:27:17;10.00;9.00;7.25
73148;PMS7003;61346;48.930;2.266;2023-01-19T09:29:52;10.75;10.75;7.00
73148;PMS7003;61346;48.930;2.266;2023-01-19T09:32:20;16.50;12.75;10.50
73148;PMS7003;61346;48.930;2.266;2023-01-19T09:34:53;14.50;10.50;6.75
73148;PMS7003;61346;48.930;2.266;2023-01-19T09:37:26;4.00;3.50;2.00
73148;PMS7003;61346;48.930;2.266;2023-01-19T09:39:53;11.75;10.00;9.00
73148;PMS7003;61346;48.930;2.266;2023-01-19T09:45:45;14.75;13.25;10.25
73148;PMS7003;61346;48.930;2.266;2023-01-19T09:51:28;12.25;12.25;10.00
73148;PMS7003;61346;48.930;2.266;2023-01-19T09:57:08;17.75;12.25;9.75
73148;PMS7003;61346;48.930;2.266;2023-01-19T09:59:57;12.75;10.75;9.25
73148;PMS7003;61346;48.930;2.266;2023-01-19T10:05:25;19.00;15.75;9.00
73148;PMS7003;61346;48.930;2.266;2023-01-19T10:14:43;15.00;12.25;9.00
73148;PMS7003;61346;48.930;2.266;2023-01-19T10:20:00;18.00;12.50;10.75
73148;PMS7003;61346;48.930;2.266;2023-01-19T10:22:27;17.25;14.00;8.25
73148;PMS7003;61346;48.930;2.266;2023-01-19T10:24:59;14.75;14.50;11.00
73148;PMS7003;61346;48.930;2.266;2023-01-19T10:27:40;13.75;13.75;10.25
73148;PMS7003;61346;48.930;2.266;2023-01-19T10:30:20;14.50;13.50;9.25
73148;PMS7003;61346;48.930;2.266;2023-01-19T10:32:59;20.50;16.25;11.00
73148;PMS7003;61346;48.930;2.266;2023-01-19T10:35:34;17.25;12.75;8.25
73148;PMS7003;61346;48.930;2.266;2023-01-19T10:38:04;17.50;17.25;14.00
73148;PMS7003;61346;48.930;2.266;2023-01-19T10:40:35;20.75;17.25;10.75
73148;PMS7003;61346;48.930;2.266;2023-01-19T10:46:04;20.00;17.50;12.50
73148;PMS7003;61346;48.930;2.266;2023-01-19T10:49:01;17.75;17.75;12.25
73148;PMS7003;61346;48.930;2.266;2023-01-19T10:51:30;18.00;16.50;11.75
73148;PMS7003;61346;48.930;2.266;2023-01-19T10:53:57;20.00;16.75;11.00
73148;PMS7003;61346;48.930;2.266;2023-01-19T10:56:33;23.75;21.00;12.00
73148;PMS7003;61346;48.930;2.266;2023-01-19T10:59:47;23.50;18.25;14.25
73148;PMS7003;61346;48.930;2.266;2023-01-19T11:08:23;24.25;22.00;16.75
73148;PMS7003;61346;48.930;2.266;2023-01-19T11:11:02;23.25;20.25;13.50
73148;PMS7003;61346;48.930;2.266;2023-01-19T11:16:39;22.00;19.25;10.25
73148;PMS7003;61346;48.930;2.266;2023-01-19T11:19:35;18.75;18.75;15.75
73148;PMS7003;61346;48.930;2.266;2023-01-19T11:28:40;21.50;18.50;11.50
73148;PMS7003;61346;48.930;2.266;2023-01-19T11:37:02;24.50;22.50;16.75
73148;PMS7003;61346;48.930;2.266;2023-01-19T11:40:00;17.25;17.25;15.25
73148;PMS7003;61346;48.930;2.266;2023-01-19T11:45:29;26.50;22.75;14.75
73148;PMS7003;61346;48.930;2.266;2023-01-19T11:48:24;18.75;18.75;13.25
73148;PMS7003;61346;48.930;2.266;2023-01-19T11:51:01;24.75;18.75;15.25
73148;PMS7003;61346;48.930;2.266;2023-01-19T11:53:33;27.00;24.25;18.75
73148;PMS7003;61346;48.930;2.266;2023-01-19T11:56:01;27.50;25.25;20.00
73148;PMS7003;61346;48.930;2.266;2023-01-19T12:01:33;37.75;29.50;21.50
73148;PMS7003;61346;48.930;2.266;2023-01-19T12:04:14;32.25;27.75;20.00
73148;PMS7003;61346;48.930;2.266;2023-01-19T12:06:48;24.75;23.25;16.50
73148;PMS7003;61346;48.930;2.266;2023-01-19T12:12:31;23.50;21.50;13.00
73148;PMS7003;61346;48.930;2.266;2023-01-19T12:15:06;24.25;20.00;15.00
73148;PMS7003;61346;48.930;2.266;2023-01-19T12:17:47;21.75;19.00;15.00
73148;PMS7003;61346;48.930;2.266;2023-01-19T12:22:43;14.00;11.75;8.25
73148;PMS7003;61346;48.930;2.266;2023-01-19T12:28:26;13.75;10.00;6.75
73148;PMS7003;61346;48.930;2.266;2023-01-19T12:30:57;30.00;27.25;19.50
73148;PMS7003;61346;48.930;2.266;2023-01-19T12:33:36;22.00;19.50;14.00
73148;PMS7003;61346;48.930;2.266;2023-01-19T12:39:16;14.25;13.25;11.25
73148;PMS7003;61346;48.930;2.266;2023-01-19T12:42:02;19.00;17.00;13.00
73148;PMS7003;61346;48.930;2.266;2023-01-19T12:44:37;17.00;15.50;11.00
73148;PMS7003;61346;48.930;2.266;2023-01-19T12:55:22;16.75;16.75;13.00
73148;PMS7003;61346;48.930;2.266;2023-01-19T13:03:44;26.50;26.50;18.00
73148;PMS7003;61346;48.930;2.266;2023-01-19T13:09:27;16.00;15.50;11.75
73148;PMS7003;61346;48.930;2.266;2023-01-19T13:14:38;16.00;16.00;12.00
73148;PMS7003;61346;48.930;2.266;2023-01-19T13:17:14;17.75;17.25;11.25
73148;PMS7003;61346;48.930;2.266;2023-01-19T13:19:51;17.25;14.00;11.00
73148;PMS7003;61346;48.930;2.266;2023-01-19T13:25:43;27.25;26.50;17.75
73148;PMS7003;61346;48.930;2.266;2023-01-19T13:28:15;18.50;16.50;12.25
73148;PMS7003;61346;48.930;2.266;2023-01-19T13:30:55;23.00;18.75;13.00
73148;PMS7003;61346;48.930;2.266;2023-01-19T13:33:24;19.25;19.25;14.50
73148;PMS7003;61346;48.930;2.266;2023-01-19T13:35:55;17.00;17.00;12.00
73148;PMS7003;61346;48.930;2.266;2023-01-19T13:38:25;19.25;19.25;13.25
73148;PMS7003;61346;48.930;2.266;2023-01-19T13:40:57;18.75;16.75;12.00
73148;PMS7003;61346;48.930;2.266;2023-01-19T13:43:31;22.00;17.75;13.25
73148;PMS7003;61346;48.930;2.266;2023-01-19T13:48:58;23.75;19.50;14.75
73148;PMS7003;61346;48.930;2.266;2023-01-19T13:51:28;16.75;16.75;13.50
73148;PMS7003;61346;48.930;2.266;2023-01-19T13:53:54;19.00;16.75;11.00
73148;PMS7003;61346;48.930;2.266;2023-01-19T13:56:25;19.00;18.25;14.50
73148;PMS7003;61346;48.930;2.266;2023-01-19T13:59:11;23.00;17.75;12.25
73148;PMS7003;61346;48.930;2.266;2023-01-19T14:01:40;24.50;20.00;15.00
73148;PMS7003;61346;48.930;2.266;2023-01-19T14:04:23;13.25;13.25;9.25
73148;PMS7003;61346;48.930;2.266;2023-01-19T14:06:51;21.75;17.25;13.75
73148;PMS7003;61346;48.930;2.266;2023-01-19T14:09:19;21.75;20.00;14.25
73148;PMS7003;61346;48.930;2.266;2023-01-19T14:12:08;21.25;17.75;11.75
73148;PMS7003;61346;48.930;2.266;2023-01-19T14:14:40;21.50;16.00;11.75
73148;PMS7003;61346;48.930;2.266;2023-01-19T14:19:53;17.50;15.50;11.75
73148;PMS7003;61346;48.930;2.266;2023-01-19T14:22:42;20.00;17.00;12.75
73148;PMS7003;61346;48.930;2.266;2023-01-19T14:30:57;29.75;25.75;18.50
73148;PMS7003;61346;48.930;2.266;2023-01-19T14:33:35;20.25;18.00;13.00
73148;PMS7003;61346;48.930;2.266;2023-01-19T14:45:39;24.75;21.50;14.75
73148;PMS7003;61346;48.930;2.266;2023-01-19T14:51:26;30.50;25.25;20.00
73148;PMS7003;61346;48.930;2.266;2023-01-19T16:04:47;20.75;17.25;12.50
73148;PMS7003;61346;48.930;2.266;2023-01-19T16:07:19;18.25;15.00;10.00
73148;PMS7003;61346;48.930;2.266;2023-01-19T17:24:59;27.75;26.25;20.00
73148;PMS7003;61346;48.930;2.266;2023-01-19T21:26:20;62.75;50.50;34.00
73148;PMS7003;61346;48.930;2.266;2023-01-19T22:09:42;54.00;42.75;28.25
73148;PMS7003;61346;48.930;2.266;2023-01-19T22:12:58;37.75;36.75;23.00
73148;PMS7003;61346;48.930;2.266;2023-01-19T23:02:47;23.00;22.00;13.25
73148;PMS7003;61346;48.930;2.266;2023-01-19T23:37:49;16.75;12.25;8.75
73148;PMS7003;61346;48.930;2.266;2023-01-19T23:44:37;15.50;10.25;8.75
